sensor_id;sensor_type;location;lat;lon;timestamp;P1;durP1;ratioP1;P2;durP2;ratioP2
22644;SDS011;11489;50.834;6.752;2022-12-26T00:01:54;3.63;;;1.38;;
22644;SDS011;11489;50.834;6.752;2022-12-26T00:04:20;2.67;;;1.30;;
22644;SDS011;11489;50.834;6.752;2022-12-26T00:06:46;2.03;;;1.42;;
22644;SDS011;11489;50.834;6.752;2022-12-26T00:09:12;3.28;;;1.55;;
22644;SDS011;11489;50.834;6.752;2022-12-26T00:11:38;3.72;;;1.80;;
22644;SDS011;11489;50.834;6.752;2022-12-26T00:14:11;1.88;;;1.60;;
22644;SDS011;11489;50.834;6.752;2022-12-26T00:16:39;3.13;;;1.98;;
22644;SDS011;11489;50.834;6.752;2022-12-26T00:19:05;2.95;;;1.77;;
22644;SDS011;11489;50.834;6.752;2022-12-26T00:21:31;2.45;;;1.70;;
22644;SDS011;11489;50.834;6.752;2022-12-26T00:23:57;3.50;;;1.90;;
22644;SDS011;11489;50.834;6.752;2022-12-26T00:26:24;3.70;;;1.80;;
22644;SDS011;11489;50.834;6.752;2022-12-26T00:28:53;3.35;;;1.98;;
22644;SDS011;11489;50.834;6.752;2022-12-26T00:31:20;2.75;;;1.88;;
22644;SDS011;11489;50.834;6.752;2022-12-26T00:33:50;3.78;;;1.70;;
22644;SDS011;11489;50.834;6.752;2022-12-26T00:36:19;6.07;;;1.90;;
22644;SDS011;11489;50.834;6.752;2022-12-26T00:38:50;3.33;;;1.95;;
22644;SDS011;11489;50.834;6.752;2022-12-26T00:41:16;2.88;;;1.63;;
22644;SDS011;11489;50.834;6.752;2022-12-26T00:43:43;3.60;;;1.60;;
22644;SDS011;11489;50.834;6.752;2022-12-26T00:46:09;5.68;;;1.85;;
22644;SDS011;11489;50.834;6.752;2022-12-26T00:48:35;2.85;;;2.03;;
22644;SDS011;11489;50.834;6.752;2022-12-26T00:51:01;3.33;;;1.70;;
22644;SDS011;11489;50.834;6.752;2022-12-26T00:53:27;4.13;;;2.13;;
22644;SDS011;11489;50.834;6.752;2022-12-26T00:55:53;3.08;;;1.88;;
22644;SDS011;11489;50.834;6.752;2022-12-26T00:58:19;3.78;;;1.70;;
22644;SDS011;11489;50.834;6.752;2022-12-26T01:00:45;3.20;;;1.67;;
22644;SDS011;11489;50.834;6.752;2022-12-26T01:03:12;4.35;;;1.88;;
22644;SDS011;11489;50.834;6.752;2022-12-26T01:05:42;4.00;;;1.92;;
22644;SDS011;11489;50.834;6.752;2022-12-26T01:08:12;2.90;;;1.50;;
22644;SDS011;11489;50.834;6.752;2022-12-26T01:10:41;2.25;;;1.60;;
22644;SDS011;11489;50.834;6.752;2022-12-26T01:13:08;2.45;;;1.33;;
22644;SDS011;11489;50.834;6.752;2022-12-26T01:15:34;3.67;;;1.92;;
22644;SDS011;11489;50.834;6.752;2022-12-26T01:17:59;4.35;;;1.48;;
22644;SDS011;11489;50.834;6.752;2022-12-26T01:20:26;4.10;;;1.75;;
22644;SDS011;11489;50.834;6.752;2022-12-26T01:22:52;2.95;;;1.58;;
22644;SDS011;11489;50.834;6.752;2022-12-26T01:25:19;2.97;;;1.65;;
22644;SDS011;11489;50.834;6.752;2022-12-26T01:27:44;5.18;;;1.60;;
22644;SDS011;11489;50.834;6.752;2022-12-26T01:30:10;3.58;;;1.45;;
22644;SDS011;11489;50.834;6.752;2022-12-26T01:32:36;5.43;;;1.88;;
22644;SDS011;11489;50.834;6.752;2022-12-26T01:35:02;2.10;;;1.40;;
22644;SDS011;11489;50.834;6.752;2022-12-26T01:37:27;3.60;;;1.40;;
22644;SDS011;11489;50.834;6.752;2022-12-26T01:39:53;2.72;;;1.70;;
22644;SDS011;11489;50.834;6.752;2022-12-26T01:42:20;2.65;;;1.63;;
22644;SDS011;11489;50.834;6.752;2022-12-26T01:45:00;4.05;;;1.55;;
22644;SDS011;11489;50.834;6.752;2022-12-26T01:50:03;1.83;;;1.10;;
22644;SDS011;11489;50.834;6.752;2022-12-26T01:52:35;2.83;;;1.42;;
22644;SDS011;11489;50.834;6.752;2022-12-26T01:55:05;2.00;;;1.35;;
22644;SDS011;11489;50.834;6.752;2022-12-26T01:57:40;2.33;;;1.40;;
22644;SDS011;11489;50.834;6.752;2022-12-26T02:00:08;2.35;;;1.48;;
22644;SDS011;11489;50.834;6.752;2022-12-26T02:02:34;3.53;;;1.27;;
22644;SDS011;11489;50.834;6.752;2022-12-26T02:05:22;2.15;;;1.40;;
22644;SDS011;11489;50.834;6.752;2022-12-26T02:07:57;2.70;;;1.23;;
22644;SDS011;11489;50.834;6.752;2022-12-26T02:10:31;2.75;;;1.20;;
22644;SDS011;11489;50.834;6.752;2022-12-26T02:13:02;2.30;;;1.50;;
22644;SDS011;11489;50.834;6.752;2022-12-26T02:15:28;2.70;;;1.30;;
22644;SDS011;11489;50.834;6.752;2022-12-26T02:17:55;2.97;;;1.40;;
22644;SDS011;11489;50.834;6.752;2022-12-26T02:20:22;3.17;;;1.50;;
22644;SDS011;11489;50.834;6.752;2022-12-26T02:31:48;1.63;;;1.10;;
22644;SDS011;11489;50.834;6.752;2022-12-26T02:34:36;2.03;;;1.30;;
22644;SDS011;11489;50.834;6.752;2022-12-26T02:37:15;2.67;;;1.30;;
22644;SDS011;11489;50.834;6.752;2022-12-26T02:43:02;1.48;;;1.13;;
22644;SDS011;11489;50.834;6.752;2022-12-26T02:45:50;3.58;;;1.20;;
22644;SDS011;11489;50.834;6.752;2022-12-26T03:00:40;3.10;;;1.38;;
22644;SDS011;11489;50.834;6.752;2022-12-26T03:03:29;2.00;;;1.20;;
22644;SDS011;11489;50.834;6.752;2022-12-26T03:06:18;1.90;;;1.30;;
22644;SDS011;11489;50.834;6.752;2022-12-26T03:09:37;2.83;;;1.33;;
22644;SDS011;11489;50.834;6.752;2022-12-26T03:15:02;3.90;;;1.40;;
22644;SDS011;11489;50.834;6.752;2022-12-26T03:20:29;1.60;;;1.08;;
22644;SDS011;11489;50.834;6.752;2022-12-26T03:23:05;2.65;;;1.20;;
22644;SDS011;11489;50.834;6.752;2022-12-26T03:28:18;2.60;;;1.50;;
22644;SDS011;11489;50.834;6.752;2022-12-26T03:30:45;4.38;;;1.20;;
22644;SDS011;11489;50.834;6.752;2022-12-26T03:33:15;1.38;;;1.10;;
22644;SDS011;11489;50.834;6.752;2022-12-26T03:36:00;2.88;;;1.20;;
22644;SDS011;11489;50.834;6.752;2022-12-26T03:38:33;2.60;;;1.30;;
22644;SDS011;11489;50.834;6.752;2022-12-26T03:47:44;2.45;;;1.50;;
22644;SDS011;11489;50.834;6.752;2022-12-26T03:50:37;2.08;;;1.25;;
22644;SDS011;11489;50.834;6.752;2022-12-26T03:53:34;3.50;;;1.40;;
22644;SDS011;11489;50.834;6.752;2022-12-26T03:56:45;2.28;;;1.42;;
22644;SDS011;11489;50.834;6.752;2022-12-26T03:59:37;2.30;;;1.30;;
22644;SDS011;11489;50.834;6.752;2022-12-26T04:02:29;2.05;;;1.27;;
22644;SDS011;11489;50.834;6.752;2022-12-26T04:05:15;2.55;;;1.50;;
22644;SDS011;11489;50.834;6.752;2022-12-26T04:08:01;3.08;;;1.08;;
22644;SDS011;11489;50.834;6.752;2022-12-26T04:10:53;3.85;;;1.40;;
22644;SDS011;11489;50.834;6.752;2022-12-26T04:13:49;2.40;;;1.40;;
22644;SDS011;11489;50.834;6.752;2022-12-26T04:16:44;2.13;;;1.23;;
22644;SDS011;11489;50.834;6.752;2022-12-26T04:25:12;3.00;;;1.40;;
22644;SDS011;11489;50.834;6.752;2022-12-26T04:27:59;4.57;;;1.55;;
22644;SDS011;11489;50.834;6.752;2022-12-26T04:30:45;3.22;;;1.00;;
22644;SDS011;11489;50.834;6.752;2022-12-26T04:33:35;1.35;;;1.00;;
22644;SDS011;11489;50.834;6.752;2022-12-26T04:36:32;1.35;;;0.88;;
22644;SDS011;11489;50.834;6.752;2022-12-26T04:39:23;1.25;;;0.90;;
22644;SDS011;11489;50.834;6.752;2022-12-26T04:42:12;0.75;;;0.65;;
22644;SDS011;11489;50.834;6.752;2022-12-26T04:44:57;2.55;;;0.70;;
22644;SDS011;11489;50.834;6.752;2022-12-26T04:47:23;0.90;;;0.70;;
22644;SDS011;11489;50.834;6.752;2022-12-26T04:49:49;1.15;;;0.50;;
22644;SDS011;11489;50.834;6.752;2022-12-26T04:52:34;2.05;;;0.80;;
22644;SDS011;11489;50.834;6.752;2022-12-26T04:55:18;2.45;;;0.60;;
22644;SDS011;11489;50.834;6.752;2022-12-26T04:57:44;1.40;;;0.70;;
22644;SDS011;11489;50.834;6.752;2022-12-26T05:00:10;0.77;;;0.70;;
22644;SDS011;11489;50.834;6.752;2022-12-26T05:02:36;1.00;;;0.80;;
22644;SDS011;11489;50.834;6.752;2022-12-26T05:05:20;6.68;;;0.77;;
22644;SDS011;11489;50.834;6.752;2022-12-26T05:08:05;0.93;;;0.70;;
22644;SDS011;11489;50.834;6.752;2022-12-26T05:10:52;0.88;;;0.70;;
22644;SDS011;11489;50.834;6.752;2022-12-26T05:13:18;1.40;;;0.70;;
22644;SDS011;11489;50.834;6.752;2022-12-26T05:15:44;2.20;;;1.20;;
22644;SDS011;11489;50.834;6.752;2022-12-26T05:18:28;1.05;;;0.80;;
22644;SDS011;11489;50.834;6.752;2022-12-26T05:21:12;2.67;;;0.70;;
22644;SDS011;11489;50.834;6.752;2022-12-26T05:24:00;2.38;;;0.75;;
22644;SDS011;11489;50.834;6.752;2022-12-26T05:26:45;2.33;;;0.80;;
22644;SDS011;11489;50.834;6.752;2022-12-26T05:29:40;1.23;;;0.63;;
22644;SDS011;11489;50.834;6.752;2022-12-26T05:32:06;0.60;;;0.57;;
22644;SDS011;11489;50.834;6.752;2022-12-26T05:34:31;1.40;;;0.77;;
22644;SDS011;11489;50.834;6.752;2022-12-26T05:36:57;0.95;;;0.70;;
22644;SDS011;11489;50.834;6.752;2022-12-26T05:39:23;1.48;;;0.70;;
22644;SDS011;11489;50.834;6.752;2022-12-26T05:41:49;1.27;;;0.70;;
22644;SDS011;11489;50.834;6.752;2022-12-26T05:44:15;2.03;;;0.73;;
22644;SDS011;11489;50.834;6.752;2022-12-26T05:46:41;3.03;;;0.80;;
22644;SDS011;11489;50.834;6.752;2022-12-26T05:49:07;1.40;;;0.80;;
22644;SDS011;11489;50.834;6.752;2022-12-26T05:51:33;1.00;;;0.90;;
22644;SDS011;11489;50.834;6.752;2022-12-26T05:53:59;1.67;;;0.70;;
22644;SDS011;11489;50.834;6.752;2022-12-26T05:56:25;1.65;;;1.10;;
22644;SDS011;11489;50.834;6.752;2022-12-26T05:58:55;1.83;;;0.95;;
22644;SDS011;11489;50.834;6.752;2022-12-26T06:01:21;1.75;;;1.10;;
22644;SDS011;11489;50.834;6.752;2022-12-26T06:03:50;3.83;;;1.10;;
22644;SDS011;11489;50.834;6.752;2022-12-26T06:06:17;2.33;;;1.02;;
22644;SDS011;11489;50.834;6.752;2022-12-26T06:08:47;1.83;;;0.90;;
22644;SDS011;11489;50.834;6.752;2022-12-26T06:11:14;2.88;;;1.20;;
22644;SDS011;11489;50.834;6.752;2022-12-26T06:13:41;4.03;;;1.13;;
22644;SDS011;11489;50.834;6.752;2022-12-26T06:16:08;1.48;;;1.13;;
22644;SDS011;11489;50.834;6.752;2022-12-26T06:18:35;2.33;;;1.10;;
22644;SDS011;11489;50.834;6.752;2022-12-26T06:21:05;3.20;;;1.50;;
22644;SDS011;11489;50.834;6.752;2022-12-26T06:23:33;1.75;;;1.10;;
22644;SDS011;11489;50.834;6.752;2022-12-26T06:25:59;1.23;;;0.90;;
22644;SDS011;11489;50.834;6.752;2022-12-26T06:28:25;1.80;;;0.88;;
22644;SDS011;11489;50.834;6.752;2022-12-26T06:30:51;1.00;;;0.70;;
22644;SDS011;11489;50.834;6.752;2022-12-26T06:33:17;0.70;;;0.60;;
22644;SDS011;11489;50.834;6.752;2022-12-26T06:35:43;0.88;;;0.50;;
22644;SDS011;11489;50.834;6.752;2022-12-26T06:38:09;1.77;;;0.50;;
22644;SDS011;11489;50.834;6.752;2022-12-26T06:40:38;0.75;;;0.40;;
22644;SDS011;11489;50.834;6.752;2022-12-26T06:43:05;0.30;;;0.30;;
22644;SDS011;11489;50.834;6.752;2022-12-26T06:45:31;0.30;;;0.28;;
22644;SDS011;11489;50.834;6.752;2022-12-26T06:47:57;0.30;;;0.30;;
22644;SDS011;11489;50.834;6.752;2022-12-26T06:50:23;0.47;;;0.30;;
22644;SDS011;11489;50.834;6.752;2022-12-26T06:52:50;0.57;;;0.40;;
22644;SDS011;11489;50.834;6.752;2022-12-26T06:55:15;0.80;;;0.50;;
22644;SDS011;11489;50.834;6.752;2022-12-26T06:57:41;0.77;;;0.32;;
22644;SDS011;11489;50.834;6.752;2022-12-26T07:00:07;0.50;;;0.40;;
22644;SDS011;11489;50.834;6.752;2022-12-26T07:02:33;1.13;;;0.63;;
22644;SDS011;11489;50.834;6.752;2022-12-26T07:04:59;1.45;;;0.85;;
22644;SDS011;11489;50.834;6.752;2022-12-26T07:07:24;1.83;;;0.80;;
22644;SDS011;11489;50.834;6.752;2022-12-26T07:09:50;1.08;;;0.70;;
22644;SDS011;11489;50.834;6.752;2022-12-26T07:12:15;1.25;;;0.80;;
22644;SDS011;11489;50.834;6.752;2022-12-26T07:14:45;2.78;;;1.25;;
22644;SDS011;11489;50.834;6.752;2022-12-26T07:17:10;2.55;;;1.10;;
22644;SDS011;11489;50.834;6.752;2022-12-26T07:19:36;1.50;;;0.90;;
22644;SDS011;11489;50.834;6.752;2022-12-26T07:22:01;0.80;;;0.77;;
22644;SDS011;11489;50.834;6.752;2022-12-26T07:24:27;0.70;;;0.70;;
22644;SDS011;11489;50.834;6.752;2022-12-26T07:26:53;1.27;;;0.73;;
22644;SDS011;11489;50.834;6.752;2022-12-26T07:29:19;1.05;;;0.70;;
22644;SDS011;11489;50.834;6.752;2022-12-26T07:31:45;0.57;;;0.45;;
22644;SDS011;11489;50.834;6.752;2022-12-26T07:34:11;0.90;;;0.60;;
22644;SDS011;11489;50.834;6.752;2022-12-26T07:36:37;0.60;;;0.60;;
22644;SDS011;11489;50.834;6.752;2022-12-26T07:39:03;0.85;;;0.70;;
22644;SDS011;11489;50.834;6.752;2022-12-26T07:41:29;1.25;;;0.80;;
22644;SDS011;11489;50.834;6.752;2022-12-26T07:44:13;2.13;;;0.90;;
22644;SDS011;11489;50.834;6.752;2022-12-26T07:46:39;1.42;;;0.80;;
22644;SDS011;11489;50.834;6.752;2022-12-26T07:49:04;1.15;;;0.80;;
22644;SDS011;11489;50.834;6.752;2022-12-26T07:51:30;3.47;;;0.70;;
22644;SDS011;11489;50.834;6.752;2022-12-26T07:53:56;0.88;;;0.70;;
22644;SDS011;11489;50.834;6.752;2022-12-26T07:56:21;0.93;;;0.80;;
22644;SDS011;11489;50.834;6.752;2022-12-26T07:58:47;2.67;;;0.73;;
22644;SDS011;11489;50.834;6.752;2022-12-26T08:01:14;1.23;;;0.80;;
22644;SDS011;11489;50.834;6.752;2022-12-26T08:03:40;0.90;;;0.68;;
22644;SDS011;11489;50.834;6.752;2022-12-26T08:06:05;1.08;;;0.90;;
22644;SDS011;11489;50.834;6.752;2022-12-26T08:08:33;2.92;;;1.10;;
22644;SDS011;11489;50.834;6.752;2022-12-26T08:10:59;3.25;;;1.20;;
22644;SDS011;11489;50.834;6.752;2022-12-26T08:13:29;2.03;;;1.20;;
22644;SDS011;11489;50.834;6.752;2022-12-26T08:15:55;2.65;;;1.30;;
22644;SDS011;11489;50.834;6.752;2022-12-26T08:18:22;1.65;;;0.90;;
22644;SDS011;11489;50.834;6.752;2022-12-26T08:20:48;2.67;;;1.35;;
22644;SDS011;11489;50.834;6.752;2022-12-26T08:23:14;3.08;;;1.40;;
22644;SDS011;11489;50.834;6.752;2022-12-26T08:25:40;3.45;;;1.60;;
22644;SDS011;11489;50.834;6.752;2022-12-26T08:28:06;4.80;;;1.60;;
22644;SDS011;11489;50.834;6.752;2022-12-26T08:30:32;2.95;;;1.40;;
22644;SDS011;11489;50.834;6.752;2022-12-26T08:32:57;3.75;;;1.52;;
22644;SDS011;11489;50.834;6.752;2022-12-26T08:35:23;3.97;;;1.60;;
22644;SDS011;11489;50.834;6.752;2022-12-26T08:37:49;2.03;;;1.23;;
22644;SDS011;11489;50.834;6.752;2022-12-26T08:40:14;2.15;;;1.35;;
22644;SDS011;11489;50.834;6.752;2022-12-26T08:42:40;2.95;;;1.33;;
22644;SDS011;11489;50.834;6.752;2022-12-26T08:45:06;2.70;;;1.05;;
22644;SDS011;11489;50.834;6.752;2022-12-26T08:47:32;1.02;;;0.90;;
22644;SDS011;11489;50.834;6.752;2022-12-26T08:49:57;2.35;;;1.65;;
22644;SDS011;11489;50.834;6.752;2022-12-26T08:52:23;2.05;;;1.00;;
22644;SDS011;11489;50.834;6.752;2022-12-26T08:54:49;2.92;;;1.08;;
22644;SDS011;11489;50.834;6.752;2022-12-26T08:57:14;2.10;;;1.13;;
22644;SDS011;11489;50.834;6.752;2022-12-26T08:59:40;3.83;;;1.00;;
22644;SDS011;11489;50.834;6.752;2022-12-26T09:02:07;0.98;;;0.88;;
22644;SDS011;11489;50.834;6.752;2022-12-26T09:04:34;2.10;;;1.00;;
22644;SDS011;11489;50.834;6.752;2022-12-26T09:07:01;1.73;;;0.80;;
22644;SDS011;11489;50.834;6.752;2022-12-26T09:09:27;2.50;;;0.75;;
22644;SDS011;11489;50.834;6.752;2022-12-26T09:11:53;2.25;;;1.23;;
22644;SDS011;11489;50.834;6.752;2022-12-26T09:14:19;2.25;;;0.95;;
22644;SDS011;11489;50.834;6.752;2022-12-26T09:16:44;2.08;;;1.02;;
22644;SDS011;11489;50.834;6.752;2022-12-26T09:19:11;2.70;;;1.00;;
22644;SDS011;11489;50.834;6.752;2022-12-26T09:21:38;1.58;;;0.90;;
22644;SDS011;11489;50.834;6.752;2022-12-26T09:24:05;1.95;;;0.70;;
22644;SDS011;11489;50.834;6.752;2022-12-26T09:26:34;2.22;;;0.90;;
22644;SDS011;11489;50.834;6.752;2022-12-26T09:29:00;0.82;;;0.70;;
22644;SDS011;11489;50.834;6.752;2022-12-26T09:31:27;1.05;;;0.77;;
22644;SDS011;11489;50.834;6.752;2022-12-26T09:33:54;2.30;;;0.60;;
22644;SDS011;11489;50.834;6.752;2022-12-26T09:36:27;3.47;;;0.90;;
22644;SDS011;11489;50.834;6.752;2022-12-26T09:38:55;3.25;;;1.00;;
22644;SDS011;11489;50.834;6.752;2022-12-26T09:41:34;2.78;;;0.80;;
22644;SDS011;11489;50.834;6.752;2022-12-26T09:55:18;2.63;;;0.82;;
22644;SDS011;11489;50.834;6.752;2022-12-26T09:57:51;2.03;;;0.80;;
22644;SDS011;11489;50.834;6.752;2022-12-26T10:00:28;2.17;;;0.80;;
22644;SDS011;11489;50.834;6.752;2022-12-26T10:02:58;2.08;;;0.93;;
22644;SDS011;11489;50.834;6.752;2022-12-26T10:05:30;1.90;;;0.77;;
22644;SDS011;11489;50.834;6.752;2022-12-26T10:08:19;5.63;;;1.58;;
22644;SDS011;11489;50.834;6.752;2022-12-26T10:11:00;2.42;;;0.70;;
22644;SDS011;11489;50.834;6.752;2022-12-26T10:16:07;2.03;;;0.80;;
22644;SDS011;11489;50.834;6.752;2022-12-26T10:21:33;2.50;;;0.73;;
22644;SDS011;11489;50.834;6.752;2022-12-26T10:24:37;3.72;;;1.35;;
22644;SDS011;11489;50.834;6.752;2022-12-26T10:27:08;2.85;;;0.77;;
22644;SDS011;11489;50.834;6.752;2022-12-26T10:29:39;1.52;;;0.80;;
22644;SDS011;11489;50.834;6.752;2022-12-26T10:32:27;2.45;;;0.73;;
22644;SDS011;11489;50.834;6.752;2022-12-26T10:34:58;2.50;;;0.77;;
22644;SDS011;11489;50.834;6.752;2022-12-26T10:37:35;3.08;;;0.80;;
22644;SDS011;11489;50.834;6.752;2022-12-26T10:42:40;1.10;;;0.65;;
22644;SDS011;11489;50.834;6.752;2022-12-26T10:47:47;1.30;;;0.70;;
22644;SDS011;11489;50.834;6.752;2022-12-26T10:50:25;1.77;;;0.80;;
22644;SDS011;11489;50.834;6.752;2022-12-26T10:52:53;4.55;;;0.90;;
22644;SDS011;11489;50.834;6.752;2022-12-26T10:55:29;1.98;;;0.90;;
22644;SDS011;11489;50.834;6.752;2022-12-26T10:57:57;3.38;;;0.80;;
22644;SDS011;11489;50.834;6.752;2022-12-26T11:00:27;2.28;;;0.80;;
22644;SDS011;11489;50.834;6.752;2022-12-26T11:05:37;2.08;;;0.77;;
22644;SDS011;11489;50.834;6.752;2022-12-26T11:08:17;2.47;;;0.98;;
22644;SDS011;11489;50.834;6.752;2022-12-26T11:11:02;1.77;;;0.77;;
22644;SDS011;11489;50.834;6.752;2022-12-26T11:13:48;1.52;;;0.70;;
22644;SDS011;11489;50.834;6.752;2022-12-26T11:16:25;1.05;;;0.68;;
22644;SDS011;11489;50.834;6.752;2022-12-26T11:18:53;1.45;;;0.70;;
22644;SDS011;11489;50.834;6.752;2022-12-26T11:23:50;2.15;;;0.75;;
22644;SDS011;11489;50.834;6.752;2022-12-26T11:26:19;2.50;;;1.00;;
22644;SDS011;11489;50.834;6.752;2022-12-26T11:31:41;2.90;;;0.85;;
22644;SDS011;11489;50.834;6.752;2022-12-26T11:34:16;3.50;;;0.80;;
22644;SDS011;11489;50.834;6.752;2022-12-26T11:36:48;2.33;;;0.73;;
22644;SDS011;11489;50.834;6.752;2022-12-26T11:42:17;3.38;;;0.77;;
22644;SDS011;11489;50.834;6.752;2022-12-26T11:44:45;1.58;;;0.68;;
22644;SDS011;11489;50.834;6.752;2022-12-26T11:47:17;6.35;;;1.55;;
22644;SDS011;11489;50.834;6.752;2022-12-26T11:50:01;2.38;;;0.77;;
22644;SDS011;11489;50.834;6.752;2022-12-26T11:52:36;3.58;;;0.90;;
22644;SDS011;11489;50.834;6.752;2022-12-26T11:55:21;2.13;;;0.80;;
22644;SDS011;11489;50.834;6.752;2022-12-26T12:03:08;2.40;;;0.70;;
22644;SDS011;11489;50.834;6.752;2022-12-26T12:10:59;2.67;;;0.82;;
22644;SDS011;11489;50.834;6.752;2022-12-26T12:16:45;2.35;;;0.73;;
22644;SDS011;11489;50.834;6.752;2022-12-26T12:24:39;2.97;;;0.98;;
22644;SDS011;11489;50.834;6.752;2022-12-26T12:27:28;3.95;;;0.80;;
22644;SDS011;11489;50.834;6.752;2022-12-26T12:30:09;3.47;;;0.77;;
22644;SDS011;11489;50.834;6.752;2022-12-26T12:33:14;1.77;;;0.80;;
22644;SDS011;11489;50.834;6.752;2022-12-26T12:36:08;2.45;;;0.70;;
22644;SDS011;11489;50.834;6.752;2022-12-26T12:41:19;2.65;;;0.95;;
22644;SDS011;11489;50.834;6.752;2022-12-26T12:44:06;1.45;;;0.80;;
22644;SDS011;11489;50.834;6.752;2022-12-26T12:50:03;3.67;;;0.98;;
22644;SDS011;11489;50.834;6.752;2022-12-26T12:52:53;1.60;;;0.63;;
22644;SDS011;11489;50.834;6.752;2022-12-26T12:58:20;3.30;;;0.85;;
22644;SDS011;11489;50.834;6.752;2022-12-26T13:01:10;2.22;;;0.88;;
22644;SDS011;11489;50.834;6.752;2022-12-26T13:06:48;2.90;;;0.80;;
22644;SDS011;11489;50.834;6.752;2022-12-26T13:09:31;1.95;;;0.75;;
22644;SDS011;11489;50.834;6.752;2022-12-26T13:12:05;5.07;;;0.70;;
22644;SDS011;11489;50.834;6.752;2022-12-26T13:15:04;1.13;;;0.73;;
22644;SDS011;11489;50.834;6.752;2022-12-26T13:17:50;2.10;;;0.57;;
22644;SDS011;11489;50.834;6.752;2022-12-26T13:20:27;1.92;;;0.63;;
22644;SDS011;11489;50.834;6.752;2022-12-26T13:23:00;3.05;;;0.90;;
22644;SDS011;11489;50.834;6.752;2022-12-26T13:25:49;1.45;;;0.60;;
22644;SDS011;11489;50.834;6.752;2022-12-26T13:28:28;1.13;;;0.75;;
22644;SDS011;11489;50.834;6.752;2022-12-26T13:30:58;2.25;;;0.60;;
22644;SDS011;11489;50.834;6.752;2022-12-26T13:33:23;2.83;;;0.98;;
22644;SDS011;11489;50.834;6.752;2022-12-26T13:41:19;4.68;;;1.40;;
22644;SDS011;11489;50.834;6.752;2022-12-26T13:44:05;1.02;;;0.80;;
22644;SDS011;11489;50.834;6.752;2022-12-26T13:46:36;1.35;;;0.60;;
22644;SDS011;11489;50.834;6.752;2022-12-26T13:49:27;1.95;;;0.50;;
22644;SDS011;11489;50.834;6.752;2022-12-26T13:55:27;3.03;;;0.40;;
22644;SDS011;11489;50.834;6.752;2022-12-26T14:02:57;0.30;;;0.30;;
22644;SDS011;11489;50.834;6.752;2022-12-26T14:05:51;0.45;;;0.40;;
22644;SDS011;11489;50.834;6.752;2022-12-26T14:23:01;3.13;;;1.10;;
22644;SDS011;11489;50.834;6.752;2022-12-26T14:25:31;3.88;;;1.27;;
22644;SDS011;11489;50.834;6.752;2022-12-26T14:30:59;2.47;;;1.30;;
22644;SDS011;11489;50.834;6.752;2022-12-26T14:37:13;3.03;;;1.70;;
22644;SDS011;11489;50.834;6.752;2022-12-26T14:44:51;4.05;;;2.00;;
22644;SDS011;11489;50.834;6.752;2022-12-26T14:47:40;6.43;;;2.47;;
22644;SDS011;11489;50.834;6.752;2022-12-26T14:53:29;4.20;;;1.80;;
22644;SDS011;11489;50.834;6.752;2022-12-26T15:03:50;3.28;;;2.00;;
22644;SDS011;11489;50.834;6.752;2022-12-26T15:09:35;6.93;;;2.88;;
22644;SDS011;11489;50.834;6.752;2022-12-26T15:26:23;4.47;;;1.60;;
22644;SDS011;11489;50.834;6.752;2022-12-26T15:39:52;4.07;;;1.58;;
22644;SDS011;11489;50.834;6.752;2022-12-26T15:45:34;3.97;;;1.40;;
22644;SDS011;11489;50.834;6.752;2022-12-26T15:51:00;6.55;;;1.42;;
22644;SDS011;11489;50.834;6.752;2022-12-26T15:53:35;4.95;;;1.70;;
22644;SDS011;11489;50.834;6.752;2022-12-26T16:02:00;5.43;;;1.88;;
22644;SDS011;11489;50.834;6.752;2022-12-26T16:04:39;5.22;;;2.17;;
22644;SDS011;11489;50.834;6.752;2022-12-26T16:15:31;2.72;;;1.55;;
22644;SDS011;11489;50.834;6.752;2022-12-26T16:18:17;6.20;;;1.73;;
22644;SDS011;11489;50.834;6.752;2022-12-26T16:20:50;4.88;;;1.67;;
22644;SDS011;11489;50.834;6.752;2022-12-26T16:23:36;5.43;;;1.63;;
22644;SDS011;11489;50.834;6.752;2022-12-26T16:26:04;4.20;;;1.30;;
22644;SDS011;11489;50.834;6.752;2022-12-26T16:28:33;2.60;;;1.30;;
22644;SDS011;11489;50.834;6.752;2022-12-26T16:31:03;4.28;;;1.48;;
22644;SDS011;11489;50.834;6.752;2022-12-26T16:33:30;3.55;;;1.60;;
22644;SDS011;11489;50.834;6.752;2022-12-26T16:36:01;8.35;;;1.70;;
22644;SDS011;11489;50.834;6.752;2022-12-26T16:38:28;4.97;;;1.85;;
22644;SDS011;11489;50.834;6.752;2022-12-26T16:40:55;8.32;;;2.40;;
22644;SDS011;11489;50.834;6.752;2022-12-26T16:43:30;5.70;;;2.53;;
22644;SDS011;11489;50.834;6.752;2022-12-26T16:46:02;6.32;;;3.75;;
22644;SDS011;11489;50.834;6.752;2022-12-26T16:48:30;11.93;;;4.53;;
22644;SDS011;11489;50.834;6.752;2022-12-26T16:51:28;9.68;;;4.50;;
22644;SDS011;11489;50.834;6.752;2022-12-26T16:54:13;10.55;;;4.47;;
22644;SDS011;11489;50.834;6.752;2022-12-26T16:57:12;11.05;;;4.90;;
22644;SDS011;11489;50.834;6.752;2022-12-26T16:59:53;9.48;;;4.78;;
22644;SDS011;11489;50.834;6.752;2022-12-26T17:02:24;9.13;;;4.15;;
22644;SDS011;11489;50.834;6.752;2022-12-26T17:05:01;7.85;;;3.88;;
22644;SDS011;11489;50.834;6.752;2022-12-26T17:07:29;6.30;;;2.70;;
22644;SDS011;11489;50.834;6.752;2022-12-26T17:09:56;4.82;;;2.20;;
22644;SDS011;11489;50.834;6.752;2022-12-26T17:12:25;4.65;;;2.13;;
22644;SDS011;11489;50.834;6.752;2022-12-26T17:14:55;7.63;;;2.35;;
22644;SDS011;11489;50.834;6.752;2022-12-26T17:19:52;5.43;;;2.13;;
22644;SDS011;11489;50.834;6.752;2022-12-26T17:22:32;4.95;;;1.55;;
22644;SDS011;11489;50.834;6.752;2022-12-26T17:30:32;7.53;;;1.73;;
22644;SDS011;11489;50.834;6.752;2022-12-26T17:33:00;6.70;;;1.98;;
22644;SDS011;11489;50.834;6.752;2022-12-26T17:35:35;4.30;;;1.90;;
22644;SDS011;11489;50.834;6.752;2022-12-26T17:38:03;8.98;;;2.03;;
22644;SDS011;11489;50.834;6.752;2022-12-26T17:40:35;7.20;;;2.60;;
22644;SDS011;11489;50.834;6.752;2022-12-26T17:45:35;7.25;;;2.38;;
22644;SDS011;11489;50.834;6.752;2022-12-26T17:48:02;8.73;;;2.60;;
22644;SDS011;11489;50.834;6.752;2022-12-26T17:50:38;8.80;;;3.20;;
22644;SDS011;11489;50.834;6.752;2022-12-26T17:53:06;6.43;;;2.53;;
22644;SDS011;11489;50.834;6.752;2022-12-26T17:55:55;7.43;;;3.38;;
22644;SDS011;11489;50.834;6.752;2022-12-26T17:58:32;6.75;;;2.67;;
22644;SDS011;11489;50.834;6.752;2022-12-26T18:00:59;8.73;;;3.47;;
22644;SDS011;11489;50.834;6.752;2022-12-26T18:03:25;8.68;;;3.30;;
22644;SDS011;11489;50.834;6.752;2022-12-26T18:05:51;6.68;;;3.00;;
22644;SDS011;11489;50.834;6.752;2022-12-26T18:08:33;11.73;;;3.40;;
22644;SDS011;11489;50.834;6.752;2022-12-26T18:11:02;8.88;;;3.03;;
22644;SDS011;11489;50.834;6.752;2022-12-26T18:13:37;11.88;;;3.40;;
22644;SDS011;11489;50.834;6.752;2022-12-26T18:16:04;6.93;;;2.75;;
22644;SDS011;11489;50.834;6.752;2022-12-26T18:20:59;7.22;;;2.83;;
22644;SDS011;11489;50.834;6.752;2022-12-26T18:23:25;12.43;;;2.85;;
22644;SDS011;11489;50.834;6.752;2022-12-26T18:25:50;8.25;;;3.53;;
22644;SDS011;11489;50.834;6.752;2022-12-26T18:28:19;8.10;;;3.03;;
22644;SDS011;11489;50.834;6.752;2022-12-26T18:30:44;9.32;;;3.08;;
22644;SDS011;11489;50.834;6.752;2022-12-26T18:33:10;7.82;;;2.85;;
22644;SDS011;11489;50.834;6.752;2022-12-26T18:35:38;6.70;;;3.20;;
22644;SDS011;11489;50.834;6.752;2022-12-26T18:38:04;7.60;;;3.13;;
22644;SDS011;11489;50.834;6.752;2022-12-26T18:40:33;9.43;;;2.70;;
22644;SDS011;11489;50.834;6.752;2022-12-26T18:43:04;7.53;;;2.70;;
22644;SDS011;11489;50.834;6.752;2022-12-26T18:45:31;10.90;;;2.87;;
22644;SDS011;11489;50.834;6.752;2022-12-26T18:47:58;6.80;;;2.75;;
22644;SDS011;11489;50.834;6.752;2022-12-26T18:50:24;5.87;;;2.67;;
22644;SDS011;11489;50.834;6.752;2022-12-26T18:52:52;7.47;;;2.50;;
22644;SDS011;11489;50.834;6.752;2022-12-26T18:55:17;10.90;;;2.70;;
22644;SDS011;11489;50.834;6.752;2022-12-26T18:57:43;13.30;;;3.20;;
22644;SDS011;11489;50.834;6.752;2022-12-26T19:00:12;14.30;;;3.63;;
22644;SDS011;11489;50.834;6.752;2022-12-26T19:02:39;13.73;;;3.50;;
22644;SDS011;11489;50.834;6.752;2022-12-26T19:05:05;11.70;;;3.07;;